createdAt,value
2022-11-20T00:01:49.258Z,21.83
2022-11-20T00:06:51.453Z,22.40
2022-11-20T00:11:53.459Z,23.02
2022-11-20T00:16:55.462Z,24.15
2022-11-20T00:21:57.602Z,23.13
2022-11-20T00:26:59.621Z,24.85
2022-11-20T00:32:01.634Z,23.27
2022-11-20T00:37:03.855Z,23.88
2022-11-20T00:42:05.923Z,20.88
2022-11-20T00:47:07.940Z,24.75
2022-11-20T00:52:10.046Z,24.13
2022-11-20T00:57:12.046Z,24.35
2022-11-20T01:02:14.117Z,26.40
2022-11-20T01:07:16.231Z,24.25
2022-11-20T01:12:18.297Z,24.23
2022-11-20T01:17:20.378Z,26.08
2022-11-20T01:22:22.560Z,24.75
2022-11-20T01:27:24.591Z,27.02
2022-11-20T01:32:26.642Z,23.25
2022-11-20T01:37:28.610Z,23.35
2022-11-20T01:43:03.034Z,23.73
2022-11-20T01:48:05.352Z,26.35
2022-11-20T01:53:11.990Z,25.58
2022-11-20T01:58:14.822Z,27.17
2022-11-20T02:03:19.871Z,23.60
2022-11-20T02:08:22.677Z,25.15
2022-11-20T02:13:43.614Z,25.13
2022-11-20T02:24:08.315Z,24.92
2022-11-20T02:29:10.463Z,26.00
2022-11-20T02:34:12.486Z,24.65
2022-11-20T02:39:17.843Z,26.85
2022-11-20T02:44:20.837Z,27.33
2022-11-20T02:49:23.148Z,23.88
2022-11-20T02:54:26.126Z,25.27
2022-11-20T02:59:28.163Z,25.90
2022-11-20T03:04:30.110Z,30.45
2022-11-20T03:09:32.159Z,23.48
2022-11-20T03:14:35.113Z,26.95
2022-11-20T03:19:37.353Z,28.00
2022-11-20T03:24:39.498Z,25.85
2022-11-20T03:29:41.529Z,23.98
2022-11-20T03:34:43.571Z,26.02
2022-11-20T03:39:45.799Z,26.00
2022-11-20T03:44:47.836Z,24.58
2022-11-20T03:49:49.968Z,23.10
2022-11-20T03:54:51.944Z,23.30
2022-11-20T03:59:53.924Z,25.52
2022-11-20T04:04:55.942Z,26.05
2022-11-20T04:09:57.918Z,23.02
2022-11-20T04:14:59.889Z,27.30
2022-11-20T04:20:02.909Z,25.65
2022-11-20T04:25:05.364Z,23.67
2022-11-20T04:30:07.830Z,23.90
2022-11-20T04:35:09.914Z,27.05
2022-11-20T04:40:12.594Z,23.35
2022-11-20T04:45:14.663Z,24.90
2022-11-20T04:50:16.778Z,27.02
2022-11-20T04:55:18.846Z,23.13
2022-11-20T05:00:20.980Z,26.65
2022-11-20T05:05:23.062Z,25.92
2022-11-20T05:10:28.449Z,25.00
2022-11-20T05:15:30.547Z,24.10
2022-11-20T05:20:32.591Z,24.17
2022-11-20T05:25:34.630Z,23.73
2022-11-20T05:30:36.619Z,23.42
2022-11-20T05:35:38.609Z,21.83
2022-11-20T05:40:40.689Z,26.58
2022-11-20T05:45:42.712Z,23.33
2022-11-20T05:50:44.694Z,24.50
2022-11-20T05:55:46.685Z,25.05
2022-11-20T06:00:48.657Z,23.48
2022-11-20T06:05:50.705Z,24.83
2022-11-20T06:10:52.875Z,24.85
2022-11-20T06:15:55.087Z,24.17
2022-11-20T06:21:07.657Z,24.17
2022-11-20T06:26:15.432Z,24.25
2022-11-20T06:31:20.234Z,22.15
2022-11-20T06:36:23.471Z,26.95
2022-11-20T06:41:26.228Z,25.35
2022-11-20T06:46:28.312Z,25.38
2022-11-20T06:51:30.372Z,24.58
2022-11-20T06:56:32.414Z,26.55
2022-11-20T07:01:34.794Z,26.25
2022-11-20T07:06:37.116Z,27.40
2022-11-20T07:11:39.098Z,29.67
2022-11-20T07:16:41.156Z,24.42
2022-11-20T07:21:43.190Z,26.55
2022-11-20T07:26:48.517Z,29.05
2022-11-20T07:31:50.584Z,27.92
2022-11-20T07:36:52.595Z,28.75
2022-11-20T07:41:54.560Z,29.73
2022-11-20T07:46:56.613Z,30.08
2022-11-20T07:52:04.156Z,26.77
2022-11-20T07:57:06.986Z,29.50
2022-11-20T08:02:11.735Z,31.65
2022-11-20T08:07:13.806Z,31.98
2022-11-20T08:12:39.305Z,29.13
2022-11-20T08:17:41.270Z,31.65
2022-11-20T08:22:43.268Z,29.00
2022-11-20T08:27:45.276Z,32.22
2022-11-20T08:32:47.331Z,31.98
2022-11-20T08:37:50.308Z,30.33
2022-11-20T08:42:52.527Z,28.88
2022-11-20T08:47:54.521Z,28.45
2022-11-20T08:52:56.868Z,30.83
2022-11-20T08:57:59.079Z,29.30
2022-11-20T09:03:02.210Z,34.33
2022-11-20T09:08:04.795Z,28.65
2022-11-20T09:13:06.950Z,28.42
2022-11-20T09:18:09.235Z,31.77
2022-11-20T09:23:11.419Z,33.53
2022-11-20T09:28:13.474Z,31.85
2022-11-20T09:33:15.581Z,30.17
2022-11-20T09:38:17.580Z,32.08
2022-11-20T09:43:22.266Z,37.20
2022-11-20T09:48:43.410Z,34.08
2022-11-20T09:58:53.068Z,38.13
2022-11-20T10:04:01.738Z,40.33
2022-11-20T10:09:12.691Z,39.70
2022-11-20T10:19:50.668Z,36.50
2022-11-20T10:25:13.922Z,39.95
2022-11-20T10:30:18.729Z,36.47
2022-11-20T10:35:29.001Z,42.15
2022-11-20T10:40:44.066Z,34.47
2022-11-20T10:46:02.458Z,39.80
2022-11-20T10:51:13.664Z,46.13
2022-11-20T10:56:23.529Z,46.03
2022-11-20T11:01:27.579Z,45.63
2022-11-20T11:06:46.496Z,48.13
2022-11-20T11:11:48.747Z,49.67
2022-11-20T11:16:55.974Z,51.20
2022-11-20T11:21:58.331Z,54.00
2022-11-20T11:27:10.135Z,59.03
2022-11-20T11:32:22.649Z,56.95
2022-11-20T11:37:36.031Z,57.00
2022-11-20T11:42:49.402Z,54.15
2022-11-20T11:47:53.399Z,57.17
2022-11-20T11:53:16.642Z,60.35
2022-11-20T11:58:21.486Z,57.28
2022-11-20T12:03:30.317Z,59.22
2022-11-20T12:08:44.659Z,57.42
2022-11-20T12:13:56.928Z,57.05
2022-11-20T12:18:59.114Z,54.97
2022-11-20T12:24:12.882Z,56.38
2022-11-20T12:29:53.374Z,52.67
2022-11-20T12:35:22.701Z,56.72
2022-11-20T12:40:53.250Z,55.25
2022-11-20T12:46:13.793Z,52.47
2022-11-20T12:51:44.245Z,52.77
2022-11-20T12:57:07.429Z,54.85
2022-11-20T13:02:34.406Z,57.63
2022-11-20T13:07:37.362Z,58.10
2022-11-20T13:12:48.909Z,60.60
2022-11-20T13:17:59.479Z,58.33
2022-11-20T13:23:01.485Z,57.03
2022-11-20T13:28:30.283Z,61.20
2022-11-20T13:33:37.794Z,54.17
2022-11-20T13:38:49.577Z,60.50
2022-11-20T13:43:53.417Z,58.78
2022-11-20T13:49:09.526Z,61.92
2022-11-20T13:54:44.718Z,62.70
2022-11-20T13:59:53.750Z,60.90
2022-11-20T14:04:59.490Z,64.82
2022-11-20T14:10:01.601Z,65.25
2022-11-20T14:15:03.856Z,66.93
2022-11-20T14:20:12.187Z,58.13
2022-11-20T14:25:20.231Z,72.55
2022-11-20T14:30:27.581Z,61.95
2022-11-20T14:35:35.357Z,63.78
2022-11-20T14:40:37.530Z,68.45
2022-11-20T14:45:39.833Z,67.20
2022-11-20T14:50:42.075Z,86.22
2022-11-20T14:55:44.084Z,67.82
2022-11-20T15:01:00.750Z,66.55
2022-11-20T15:06:03.224Z,67.30
2022-11-20T15:11:19.195Z,67.93
2022-11-20T15:16:24.157Z,76.45
2022-11-20T15:21:26.336Z,66.80
2022-11-20T15:26:28.947Z,61.90
2022-11-20T15:31:31.002Z,55.88
2022-11-20T15:36:33.154Z,61.60
2022-11-20T15:41:36.384Z,64.82
2022-11-20T15:46:43.208Z,67.32
2022-11-20T15:51:48.803Z,61.17
2022-11-20T15:56:53.310Z,58.45
2022-11-20T16:01:55.377Z,44.03
2022-11-20T16:06:57.474Z,45.88
2022-11-20T16:12:02.683Z,43.47
2022-11-20T16:17:04.863Z,44.03
2022-11-20T16:22:06.834Z,33.70
2022-11-20T16:27:09.321Z,28.27
2022-11-20T16:32:13.162Z,33.25
2022-11-20T16:37:15.268Z,21.63
2022-11-20T16:42:17.289Z,19.63
2022-11-20T16:47:19.333Z,22.23
2022-11-20T16:52:21.311Z,25.13
2022-11-20T16:57:23.458Z,21.20
2022-11-20T17:02:25.974Z,25.35
2022-11-20T17:07:28.028Z,26.10
2022-11-20T17:12:30.119Z,26.13
2022-11-20T17:17:32.118Z,21.60
2022-11-20T17:22:34.141Z,26.77
2022-11-20T17:27:36.133Z,19.50
2022-11-20T17:32:38.143Z,16.75
2022-11-20T17:37:40.219Z,11.98
2022-11-20T17:42:42.471Z,16.92
2022-11-20T17:47:46.372Z,18.15
2022-11-20T17:52:48.480Z,20.33
2022-11-20T17:57:53.277Z,28.27
2022-11-20T18:02:55.588Z,32.10
2022-11-20T18:07:57.813Z,24.90
2022-11-20T18:12:59.999Z,32.47
2022-11-20T18:18:01.986Z,29.02
2022-11-20T18:23:04.192Z,22.40
2022-11-20T18:28:06.318Z,22.95
2022-11-20T18:33:09.401Z,26.90
2022-11-20T18:38:11.378Z,22.48
2022-11-20T18:43:31.882Z,29.55
2022-11-20T18:48:33.943Z,31.27
2022-11-20T18:53:36.080Z,30.95
2022-11-20T18:58:38.091Z,35.17
2022-11-20T19:03:40.318Z,29.52
2022-11-20T19:08:42.692Z,31.25
2022-11-20T19:13:45.328Z,28.60
2022-11-20T19:18:48.396Z,33.28
2022-11-20T19:23:55.583Z,36.17
2022-11-20T19:28:58.688Z,36.47
2022-11-20T19:34:03.514Z,32.38
2022-11-20T19:39:07.530Z,31.40
2022-11-20T19:44:12.575Z,34.13
2022-11-20T19:49:14.995Z,32.65
2022-11-20T19:54:17.615Z,29.52
2022-11-20T19:59:19.651Z,34.22
2022-11-20T20:04:21.782Z,34.22
2022-11-20T20:09:29.690Z,37.50
2022-11-20T20:19:57.971Z,29.65
2022-11-20T20:25:30.927Z,33.17
2022-11-20T20:30:34.981Z,50.38
2022-11-20T20:36:09.769Z,45.97
2022-11-20T20:41:13.053Z,39.38
2022-11-20T20:46:15.094Z,34.40
2022-11-20T20:51:17.272Z,37.65
2022-11-20T20:56:19.410Z,33.05
2022-11-20T21:01:22.801Z,38.78
2022-11-20T21:06:25.877Z,36.00
2022-11-20T21:11:27.876Z,38.25
2022-11-20T21:16:40.778Z,32.15
2022-11-20T21:22:01.476Z,31.52
2022-11-20T21:27:05.474Z,28.23
2022-11-20T21:32:07.596Z,32.85
2022-11-20T21:37:09.711Z,28.52
2022-11-20T21:42:11.960Z,26.70
2022-11-20T21:47:13.980Z,27.23
2022-11-20T21:52:16.046Z,26.00
2022-11-20T21:57:18.066Z,19.08
2022-11-20T22:02:20.133Z,28.17
2022-11-20T22:07:22.613Z,17.75
2022-11-20T22:12:24.921Z,17.10
2022-11-20T22:17:45.433Z,27.25
2022-11-20T22:22:47.534Z,26.15
2022-11-20T22:27:49.606Z,22.70
2022-11-20T22:32:54.049Z,24.42
2022-11-20T22:37:56.026Z,27.95
2022-11-20T22:42:58.098Z,23.23
2022-11-20T22:48:00.233Z,21.90
2022-11-20T22:53:02.343Z,21.60
2022-11-20T22:58:04.311Z,17.25
2022-11-20T23:03:06.425Z,17.75
2022-11-20T23:08:08.617Z,12.75
2022-11-20T23:13:10.646Z,14.80
2022-11-20T23:18:12.631Z,23.70
2022-11-20T23:23:14.585Z,15.65
2022-11-20T23:28:16.642Z,26.00
2022-11-20T23:33:18.943Z,20.20
2022-11-20T23:38:21.592Z,18.45
2022-11-20T23:43:23.808Z,13.98
2022-11-20T23:48:28.740Z,11.30
2022-11-20T23:53:31.486Z,18.08
2022-11-20T23:58:37.759Z,16.30
